createdAt,value
2022-12-09T00:03:49.283Z,99501.71
2022-12-09T00:07:57.647Z,99501.14
2022-12-09T00:12:06.264Z,99503.42
2022-12-09T00:16:16.245Z,99501.06
2022-12-09T00:20:24.114Z,99499.89
2022-12-09T00:24:31.817Z,99504.09
2022-12-09T00:28:40.683Z,99505.20
2022-12-09T00:32:48.728Z,99500.14
2022-12-09T00:36:56.598Z,99500.62
2022-12-09T00:41:04.963Z,99498.04
2022-12-09T00:45:14.147Z,99499.59
2022-12-09T00:49:21.768Z,99505.25
2022-12-09T00:53:29.437Z,99510.23
2022-12-09T00:57:37.160Z,99512.21
2022-12-09T01:01:44.861Z,99514.70
2022-12-09T01:05:53.389Z,99516.86
2022-12-09T01:10:01.067Z,99514.30
2022-12-09T01:14:09.004Z,99514.73
2022-12-09T01:18:17.013Z,99514.83
2022-12-09T01:22:24.990Z,99512.73
2022-12-09T01:26:32.947Z,99511.91
2022-12-09T01:30:41.282Z,99507.79
2022-12-09T01:34:48.993Z,99509.79
2022-12-09T01:38:57.634Z,99514.86
2022-12-09T01:43:05.573Z,99507.07
2022-12-09T01:47:24.341Z,99512.98
2022-12-09T01:51:32.803Z,99510.96
2022-12-09T01:55:40.478Z,99510.77
2022-12-09T01:59:48.429Z,99505.55
2022-12-09T02:03:56.994Z,99504.57
2022-12-09T02:08:07.726Z,99506.03
2022-12-09T02:12:18.149Z,99500.86
2022-12-09T02:16:27.547Z,99508.83
2022-12-09T02:20:38.820Z,99506.58
2022-12-09T02:24:52.314Z,99501.73
2022-12-09T02:29:21.873Z,99499.02
2022-12-09T02:33:37.931Z,99493.89
2022-12-09T02:37:52.164Z,99495.43
2022-12-09T02:42:02.096Z,99490.95
2022-12-09T02:46:12.611Z,99487.77
2022-12-09T02:50:23.395Z,99481.95
2022-12-09T02:54:32.362Z,99484.64
2022-12-09T02:58:40.218Z,99484.33
2022-12-09T03:02:52.352Z,99480.66
2022-12-09T03:07:08.862Z,99477.91
2022-12-09T03:11:19.366Z,99480.01
2022-12-09T03:15:29.652Z,99476.50
2022-12-09T03:19:42.002Z,99476.65
2022-12-09T03:23:49.957Z,99476.99
2022-12-09T03:28:00.831Z,99472.37
2022-12-09T03:32:09.108Z,99473.35
2022-12-09T03:36:21.338Z,99466.83
2022-12-09T03:40:31.794Z,99465.66
2022-12-09T03:44:42.168Z,99469.76
2022-12-09T03:48:50.005Z,99466.85
2022-12-09T03:53:02.061Z,99463.27
2022-12-09T03:57:18.466Z,99462.83
2022-12-09T04:01:28.765Z,99464.05
2022-12-09T04:05:37.152Z,99461.70
2022-12-09T04:09:46.280Z,99458.63
2022-12-09T04:13:54.800Z,99453.08
2022-12-09T04:18:03.136Z,99459.54
2022-12-09T04:22:10.674Z,99461.05
2022-12-09T04:26:21.263Z,99457.84
2022-12-09T04:30:29.144Z,99458.45
2022-12-09T04:34:38.410Z,99456.63
2022-12-09T04:38:47.832Z,99462.59
2022-12-09T04:42:56.469Z,99462.63
2022-12-09T04:47:04.993Z,99470.50
2022-12-09T04:51:14.398Z,99472.97
2022-12-09T04:55:22.700Z,99473.09
2022-12-09T04:59:31.831Z,99472.13
2022-12-09T05:03:40.064Z,99474.66
2022-12-09T05:07:48.724Z,99473.21
2022-12-09T05:12:01.068Z,99476.31
2022-12-09T05:16:15.975Z,99486.04
2022-12-09T05:20:29.964Z,99483.83
2022-12-09T05:24:38.403Z,99488.13
2022-12-09T05:28:46.394Z,99489.52
2022-12-09T05:32:56.008Z,99491.91
2022-12-09T05:37:07.769Z,99487.48
2022-12-09T05:41:16.676Z,99489.70
2022-12-09T05:45:26.328Z,99494.23
2022-12-09T05:49:36.556Z,99497.71
2022-12-09T05:53:44.499Z,99496.91
2022-12-09T05:57:53.818Z,99494.28
2022-12-09T06:02:06.904Z,99489.38
2022-12-09T06:06:20.028Z,99491.08
2022-12-09T06:10:28.712Z,99492.86
2022-12-09T06:14:37.078Z,99493.72
2022-12-09T06:18:45.194Z,99496.77
2022-12-09T06:22:54.118Z,99490.80
2022-12-09T06:27:02.762Z,99488.55
2022-12-09T06:31:10.947Z,99488.02
2022-12-09T06:35:20.655Z,99490.88
2022-12-09T06:39:34.263Z,99490.75
2022-12-09T06:43:47.570Z,99486.99
2022-12-09T06:48:04.134Z,99483.13
2022-12-09T06:52:16.571Z,99486.04
2022-12-09T06:56:33.958Z,99484.64
2022-12-09T07:00:44.516Z,99484.24
2022-12-09T07:04:58.208Z,99481.41
2022-12-09T07:09:16.639Z,99482.73
2022-12-09T07:13:24.749Z,99483.11
2022-12-09T07:17:40.684Z,99478.65
2022-12-09T07:21:52.450Z,99481.23
2022-12-09T07:26:06.735Z,99491.36
2022-12-09T07:30:18.377Z,99499.30
2022-12-09T07:34:34.986Z,99502.40
2022-12-09T07:38:47.587Z,99507.90
2022-12-09T07:43:04.479Z,99509.42
2022-12-09T07:47:13.477Z,99510.33
2022-12-09T07:51:25.938Z,99509.82
2022-12-09T07:55:38.006Z,99511.59
2022-12-09T07:59:53.579Z,99509.44
2022-12-09T08:04:10.275Z,99508.67
2022-12-09T08:08:18.908Z,99513.36
2022-12-09T08:12:43.096Z,99512.58
2022-12-09T08:16:58.833Z,99509.85
2022-12-09T08:21:09.777Z,99513.45
2022-12-09T08:25:22.286Z,99507.77
2022-12-09T08:29:38.166Z,99511.10
2022-12-09T08:33:52.177Z,99506.27
2022-12-09T08:38:03.526Z,99504.60
2022-12-09T08:42:20.676Z,99503.29
2022-12-09T08:46:30.968Z,99497.73
2022-12-09T08:50:48.059Z,99504.98
2022-12-09T08:54:58.548Z,99505.95
2022-12-09T08:59:11.169Z,99497.77
2022-12-09T09:03:22.544Z,99497.24
2022-12-09T09:07:37.322Z,99501.16
2022-12-09T09:11:55.359Z,99497.81
2022-12-09T09:16:07.085Z,99496.58
2022-12-09T09:20:21.270Z,99494.29
2022-12-09T09:24:33.370Z,99492.77
2022-12-09T09:28:47.482Z,99487.71
2022-12-09T09:33:04.223Z,99486.77
2022-12-09T09:37:21.995Z,99485.74
2022-12-09T09:42:07.842Z,99482.19
2022-12-09T09:46:38.894Z,99476.70
2022-12-09T09:50:53.103Z,99472.36
2022-12-09T09:55:01.465Z,99472.91
2022-12-09T09:59:19.590Z,99472.13
2022-12-09T10:03:43.107Z,99464.70
2022-12-09T10:07:58.544Z,99462.33
2022-12-09T10:12:19.101Z,99466.52
2022-12-09T10:16:31.823Z,99462.34
2022-12-09T10:20:40.741Z,99458.23
2022-12-09T10:24:53.526Z,99452.91
2022-12-09T10:29:11.484Z,99452.56
2022-12-09T10:33:22.652Z,99452.42
2022-12-09T10:37:33.882Z,99446.16
2022-12-09T10:42:04.715Z,99438.63
2022-12-09T10:46:22.919Z,99437.22
2022-12-09T10:50:34.408Z,99429.20
2022-12-09T10:54:45.082Z,99420.18
2022-12-09T10:58:52.997Z,99413.02
2022-12-09T11:03:01.640Z,99407.23
2022-12-09T11:07:19.037Z,99397.48
2022-12-09T11:11:45.460Z,99397.98
2022-12-09T11:15:59.800Z,99391.16
2022-12-09T11:20:26.444Z,99386.80
2022-12-09T11:24:37.219Z,99377.26
2022-12-09T11:28:46.005Z,99366.98
2022-12-09T11:33:03.495Z,99367.88
2022-12-09T11:37:14.492Z,99368.72
2022-12-09T11:41:39.336Z,99367.21
2022-12-09T11:45:48.929Z,99355.38
2022-12-09T11:50:02.516Z,99355.48
2022-12-09T11:54:15.027Z,99350.11
2022-12-09T11:58:27.451Z,99348.33
2022-12-09T12:02:39.705Z,99348.15
2022-12-09T12:06:50.944Z,99343.73
2022-12-09T12:11:01.347Z,99340.28
2022-12-09T12:15:14.531Z,99343.19
2022-12-09T12:19:25.948Z,99339.08
2022-12-09T12:23:44.367Z,99344.81
2022-12-09T12:28:14.056Z,99342.71
2022-12-09T12:32:42.412Z,99342.61
2022-12-09T12:36:56.271Z,99340.17
2022-12-09T12:41:09.626Z,99332.45
2022-12-09T12:45:40.940Z,99331.14
2022-12-09T12:50:02.525Z,99329.73
2022-12-09T12:54:19.342Z,99325.45
2022-12-09T12:58:37.593Z,99329.27
2022-12-09T13:02:51.617Z,99334.73
2022-12-09T13:07:11.220Z,99332.13
2022-12-09T13:11:27.470Z,99338.94
2022-12-09T13:15:37.849Z,99332.98
2022-12-09T13:19:48.537Z,99329.13
2022-12-09T13:24:04.500Z,99338.16
2022-12-09T13:28:15.356Z,99339.63
2022-12-09T13:32:35.192Z,99334.77
2022-12-09T13:36:45.965Z,99338.09
2022-12-09T13:40:53.815Z,99343.84
2022-12-09T13:45:07.768Z,99347.60
2022-12-09T13:49:21.092Z,99348.46
2022-12-09T13:53:33.846Z,99344.97
2022-12-09T13:57:45.743Z,99334.57
2022-12-09T14:01:55.028Z,99331.10
2022-12-09T14:06:06.182Z,99325.80
2022-12-09T14:10:40.533Z,99326.13
2022-12-09T14:14:55.791Z,99317.89
2022-12-09T14:19:40.348Z,99311.69
2022-12-09T14:24:18.809Z,99294.88
2022-12-09T14:29:01.757Z,99293.08
2022-12-09T14:33:24.279Z,99286.34
2022-12-09T14:37:57.850Z,99273.17
2022-12-09T14:42:09.810Z,99278.79
2022-12-09T14:46:27.058Z,99276.91
2022-12-09T14:50:39.042Z,99270.95
2022-12-09T14:54:48.489Z,99268.95
2022-12-09T14:58:58.652Z,99256.73
2022-12-09T15:03:33.335Z,99255.98
2022-12-09T15:07:47.092Z,99258.47
2022-12-09T15:11:55.306Z,99266.73
2022-12-09T15:16:03.675Z,99272.04
2022-12-09T15:20:25.564Z,99267.64
2022-12-09T15:24:49.706Z,99265.08
2022-12-09T15:29:01.498Z,99261.98
2022-12-09T15:33:18.272Z,99259.98
2022-12-09T15:37:29.755Z,99264.17
2022-12-09T15:41:58.033Z,99265.95
2022-12-09T15:46:06.935Z,99258.85
2022-12-09T15:50:21.221Z,99243.08
2022-12-09T15:54:32.426Z,99250.35
2022-12-09T15:58:43.700Z,99251.38
2022-12-09T16:02:52.490Z,99247.97
2022-12-09T16:07:08.176Z,99242.07
2022-12-09T16:11:15.897Z,99247.65
2022-12-09T16:15:46.075Z,99246.81
2022-12-09T16:19:54.428Z,99244.11
2022-12-09T16:24:13.636Z,99243.45
2022-12-09T16:28:26.399Z,99246.81
2022-12-09T16:32:40.753Z,99254.11
2022-12-09T16:36:57.340Z,99258.15
2022-12-09T16:41:14.071Z,99261.49
2022-12-09T16:45:32.269Z,99259.20
2022-12-09T16:49:41.176Z,99238.77
2022-12-09T16:53:51.434Z,99229.33
2022-12-09T16:58:00.880Z,99227.00
2022-12-09T17:02:20.756Z,99222.86
2022-12-09T17:06:30.296Z,99229.56
2022-12-09T17:10:38.356Z,99226.85
2022-12-09T17:14:46.270Z,99231.16
2022-12-09T17:18:53.985Z,99229.13
2022-12-09T17:23:01.089Z,99231.19
2022-12-09T17:27:08.290Z,99221.23
2022-12-09T17:31:19.516Z,99217.36
2022-12-09T17:35:27.424Z,99226.33
2022-12-09T17:39:35.921Z,99226.95
2022-12-09T17:43:43.922Z,99221.60
2022-12-09T17:47:53.638Z,99225.88
2022-12-09T17:52:02.072Z,99229.30
2022-12-09T17:56:12.296Z,99224.34
2022-12-09T18:00:21.269Z,99222.70
2022-12-09T18:04:29.195Z,99229.35
2022-12-09T18:08:38.524Z,99230.31
2022-12-09T18:12:47.182Z,99235.19
2022-12-09T18:16:55.082Z,99229.41
2022-12-09T18:21:04.600Z,99233.01
2022-12-09T18:25:13.418Z,99234.45
2022-12-09T18:29:21.384Z,99231.61
2022-12-09T18:33:29.546Z,99230.01
2022-12-09T18:37:37.154Z,99240.49
2022-12-09T18:41:46.279Z,99225.54
2022-12-09T18:45:53.943Z,99217.83
2022-12-09T18:50:01.838Z,99217.11
2022-12-09T18:54:10.278Z,99217.95
2022-12-09T18:58:27.274Z,99225.63
2022-12-09T19:02:45.733Z,99233.50
2022-12-09T19:06:55.606Z,99237.76
2022-12-09T19:11:03.228Z,99241.02
2022-12-09T19:15:13.813Z,99245.00
2022-12-09T19:19:23.417Z,99234.44
2022-12-09T19:23:31.337Z,99232.06
2022-12-09T19:27:40.394Z,99233.49
2022-12-09T19:31:49.420Z,99234.67
2022-12-09T19:35:57.872Z,99228.49
2022-12-09T19:40:06.713Z,99224.83
2022-12-09T19:44:30.925Z,99229.09
2022-12-09T19:48:46.211Z,99227.52
2022-12-09T19:52:54.246Z,99221.65
2022-12-09T19:57:02.051Z,99232.18
2022-12-09T20:01:15.683Z,99231.91
2022-12-09T20:05:23.900Z,99228.81
2022-12-09T20:09:31.647Z,99229.73
2022-12-09T20:13:39.358Z,99233.33
2022-12-09T20:17:47.662Z,99238.65
2022-12-09T20:21:56.736Z,99237.33
2022-12-09T20:26:11.179Z,99225.41
2022-12-09T20:30:20.686Z,99218.37
2022-12-09T20:34:29.077Z,99222.61
2022-12-09T20:38:37.499Z,99227.63
2022-12-09T20:42:45.379Z,99231.58
2022-12-09T20:46:54.351Z,99236.45
2022-12-09T20:51:02.305Z,99243.96
2022-12-09T20:55:12.522Z,99255.05
2022-12-09T20:59:20.763Z,99257.59
2022-12-09T21:03:28.319Z,99250.74
2022-12-09T21:07:36.021Z,99237.84
2022-12-09T21:11:43.882Z,99242.19
2022-12-09T21:15:51.746Z,99241.99
2022-12-09T21:19:59.625Z,99237.31
2022-12-09T21:24:08.430Z,99242.73
2022-12-09T21:28:16.283Z,99245.17
2022-12-09T21:32:23.895Z,99245.44
2022-12-09T21:36:35.544Z,99246.61
2022-12-09T21:40:43.616Z,99252.39
2022-12-09T21:44:51.085Z,99252.48
2022-12-09T21:49:03.599Z,99253.95
2022-12-09T21:53:12.297Z,99254.13
2022-12-09T21:57:20.656Z,99256.61
2022-12-09T22:01:30.617Z,99262.80
2022-12-09T22:05:39.059Z,99260.02
2022-12-09T22:09:47.165Z,99250.81
2022-12-09T22:13:57.420Z,99248.16
2022-12-09T22:18:06.831Z,99247.55
2022-12-09T22:22:15.031Z,99248.20
2022-12-09T22:26:23.575Z,99247.10
2022-12-09T22:30:31.182Z,99241.90
2022-12-09T22:34:39.520Z,99239.83
2022-12-09T22:38:47.404Z,99248.06
2022-12-09T22:42:55.260Z,99249.64
2022-12-09T22:47:06.423Z,99250.39
2022-12-09T22:51:18.109Z,99250.58
2022-12-09T22:55:26.144Z,99247.09
2022-12-09T22:59:38.457Z,99246.65
2022-12-09T23:03:51.373Z,99249.29
2022-12-09T23:07:59.170Z,99258.02
2022-12-09T23:12:08.429Z,99259.18
2022-12-09T23:16:19.627Z,99254.47
2022-12-09T23:20:27.504Z,99253.93
2022-12-09T23:24:35.128Z,99260.70
2022-12-09T23:28:45.145Z,99264.22
2022-12-09T23:32:52.506Z,99268.30
2022-12-09T23:37:00.218Z,99269.81
2022-12-09T23:41:08.767Z,99265.76
2022-12-09T23:45:17.238Z,99267.15
2022-12-09T23:49:24.804Z,99271.33
2022-12-09T23:53:32.565Z,99275.50
2022-12-09T23:57:40.255Z,99281.21
